Four Aida — 9HA4676 — position and weather

sailwx.info

Track history (hours):
 
Tides and Currents Weather Stations Pressure Air Temp Water Temp Dewpoint Dewpoint Depression Visibility Wind Speed Wind Dir Waves Ship Positions

Four Aida

Last reported at 2018-Apr-29 08:51 UTC. Time now 2018-May-23 22:13 UTC.
Position N 35°58' W 005°32'.
Warning: this ship's position is 24 days out of date.

Length 180 m; draft 9.9 m.

Type: Cargo ship. MMSI: 248496000.

Date/timePositionNaut miles runAvg speedWind from/ knotsBaromVisibWave heightAir tempDewpointWater temp
2018-Apr-29 08:51N 35°58' W 005°32'3 7.6
2018-Apr-29 08:30N 35°59' W 005°29'3 6.9
2018-Apr-29 08:00N 36°00' W 005°25'3 5.3
2018-Apr-29 07:31N 36°03' W 005°24'2 4.0
2018-Apr-29 07:01N 36°04' W 005°22'2 3.3
2018-Apr-29 06:30N 36°04' W 005°20'3 6.4
2018-Apr-29 06:01N 36°04' W 005°16'5 9.5
2018-Apr-29 05:29N 36°04' W 005°10'21110.4
2018-Apr-28 09:08N 36°31' W 000°50'311.9
2018-Apr-28 08:53N 36°31' W 000°46'43511.9
2018-Apr-26 20:21N 37°39' E 008°12'2712.0
2018-Apr-26 18:05N 37°43' E 008°46'111.6
2018-Apr-26 17:58N 37°43' E 008°48'1311.9
2018-Apr-26 16:53N 37°43' E 009°04'512.1
2018-Apr-26 16:30N 37°42' E 009°10'612.3
2018-Apr-26 16:00N 37°42' E 009°18'612.6
2018-Apr-26 15:30N 37°41' E 009°26'612.3
2018-Apr-26 15:00N 37°41' E 009°33'612.1
2018-Apr-26 14:30N 37°41' E 009°41'611.8
2018-Apr-26 14:00N 37°41' E 009°49'611.7
2018-Apr-26 13:28N 37°40' E 009°57'511.7
2018-Apr-26 13:00N 37°40' E 010°03'611.9
2018-Apr-26 12:30N 37°40' E 010°11'3712.3
2018-Apr-26 09:32N 37°31' E 010°56'812.0
2018-Apr-26 08:52N 37°29' E 011°06'3812.4
2018-Apr-26 05:50N 37°12' E 011°48'512.5
2018-Apr-26 05:27N 37°10' E 011°53'512.3
2018-Apr-26 05:00N 37°07' E 011°59'612.3
2018-Apr-26 04:29N 37°04' E 012°06'612.3
2018-Apr-26 04:01N 37°01' E 012°12'612.3
2018-Apr-26 03:31N 36°59' E 012°19'612.2
2018-Apr-26 03:00N 36°56' E 012°26'612.4
2018-Apr-26 02:30N 36°53' E 012°33'612.6
2018-Apr-26 02:01N 36°51' E 012°40'612.8
2018-Apr-26 01:30N 36°48' E 012°48'612.8
2018-Apr-26 01:00N 36°46' E 012°55'713.0
2018-Apr-26 00:30N 36°43' E 013°03'612.9
2018-Apr-26 00:00N 36°40' E 013°10'612.8
2018-Apr-25 23:30N 36°38' E 013°17'612.5
2018-Apr-25 23:00N 36°36' E 013°25'612.6
2018-Apr-25 22:30N 36°33' E 013°32'612.7
2018-Apr-25 22:00N 36°31' E 013°39'612.7
2018-Apr-25 21:30N 36°28' E 013°46'612.6
2018-Apr-25 21:00N 36°26' E 013°53'612.5
2018-Apr-25 20:30N 36°23' E 014°00'612.5
2018-Apr-25 20:00N 36°20' E 014°07'612.6
2018-Apr-25 19:30N 36°17' E 014°14'612.7
2018-Apr-25 19:00N 36°13' E 014°21'612.7
2018-Apr-25 18:30N 36°10' E 014°27'612.8
2018-Apr-25 18:01N 36°06' E 014°33'612.6
2018-Apr-25 17:31N 36°02' E 014°39'612.5
2018-Apr-25 17:00N 35°56' E 014°42'5 9.1
2018-Apr-25 16:30N 35°52' E 014°45'0 0.6
2018-Apr-25 15:59N 35°52' E 014°45'0 0.2
2018-Apr-25 15:29N 35°52' E 014°45'0 0.1
2018-Apr-25 14:56N 35°52' E 014°45'0 0.0
2018-Apr-25 14:29N 35°52' E 014°45'0 0.0
2018-Apr-25 13:59N 35°52' E 014°45'0 0.0
2018-Apr-25 13:29N 35°52' E 014°45'0 0.0
2018-Apr-25 12:59N 35°52' E 014°45'0 0.0
2018-Apr-25 12:29N 35°52' E 014°45'0 0.1
2018-Apr-25 11:59N 35°52' E 014°45'0 0.0
2018-Apr-25 11:29N 35°52' E 014°45'0 0.0
2018-Apr-25 10:59N 35°52' E 014°45'0 0.0
2018-Apr-25 10:29N 35°52' E 014°45'0 0.0
2018-Apr-25 09:59N 35°52' E 014°45'0 0.0
2018-Apr-25 09:29N 35°52' E 014°45'0 0.0
2018-Apr-25 08:59N 35°52' E 014°45'0 0.0
2018-Apr-25 08:29N 35°52' E 014°45'0 0.1
2018-Apr-25 07:59N 35°52' E 014°45'0 0.0
2018-Apr-25 07:29N 35°52' E 014°45'0 0.0
2018-Apr-25 06:59N 35°52' E 014°45'0 0.0
2018-Apr-25 06:29N 35°52' E 014°45'0 0.0
2018-Apr-25 05:59N 35°52' E 014°45'0 0.0
2018-Apr-25 05:29N 35°52' E 014°45'0 0.5
2018-Apr-25 05:00N 35°52' E 014°45'3 6.3
2018-Apr-25 04:30N 35°52' E 014°49'610.9
2018-Apr-25 04:00N 35°52' E 014°56'611.9
2018-Apr-25 03:30N 35°52' E 015°03'611.9
2018-Apr-25 02:59N 35°52' E 015°11'612.0
2018-Apr-25 02:30N 35°53' E 015°18'611.8
2018-Apr-25 02:00N 35°54' E 015°25'611.6
2018-Apr-25 01:30N 35°54' E 015°32'1411.9
2018-Apr-25 00:19N 35°55' E 015°50'412.0
2018-Apr-24 23:58N 35°55' E 015°55'612.2
2018-Apr-24 23:30N 35°56' E 016°02'612.6
2018-Apr-24 23:00N 35°57' E 016°09'712.5
2018-Apr-24 22:26N 35°57' E 016°18'512.3
2018-Apr-24 22:00N 35°58' E 016°25'34512.1
2018-Apr-23 17:25N 36°36' E 023°31'512.9
2018-Apr-23 17:01N 36°39' E 023°35'612.8
2018-Apr-23 16:30N 36°44' E 023°40'612.7
2018-Apr-23 16:00N 36°49' E 023°45'19612.7
2018-Apr-23 00:36N 39°44' E 025°40'612.8
2018-Apr-23 00:09N 39°48' E 025°44'312.7
2018-Apr-22 23:55N 39°51' E 025°46'613.0
2018-Apr-22 23:29N 39°55' E 025°52'713.3
2018-Apr-22 22:59N 40°00' E 025°57'713.0
2018-Apr-22 22:27N 40°01' E 026°06'  
2018-Apr-20 12:04N 46°15' E 030°54'111.2
2018-Apr-20 12:00N 46°16' E 030°54'611.9
2018-Apr-20 11:29N 46°22' E 030°55'611.5
2018-Apr-20 10:59N 46°27' E 030°55'28 8.9
2018-Apr-20 07:50N 46°35' E 031°34'610.5
2018-Apr-20 07:15N 46°36' E 031°43'310.6
2018-Apr-20 07:00N 46°36' E 031°47'510.5
2018-Apr-20 06:30N 46°38' E 031°54'5 9.8
2018-Apr-20 06:00N 46°43' E 031°56'5 9.5
2018-Apr-20 05:30N 46°47' E 031°53'4 8.9
2018-Apr-20 05:00N 46°51' E 031°57'2 3.1
2018-Apr-20 04:30N 46°51' E 031°59'0 0.1
2018-Apr-20 03:59N 46°51' E 031°59'0 0.0
2018-Apr-20 03:29N 46°51' E 031°59'0 0.0
2018-Apr-20 02:59N 46°51' E 031°59'0 0.0
2018-Apr-20 02:29N 46°51' E 031°59'0 0.0
2018-Apr-20 01:59N 46°51' E 031°59'0 0.0
2018-Apr-20 01:29N 46°51' E 031°59'0 0.0
2018-Apr-20 00:59N 46°51' E 031°59'0 0.0
2018-Apr-20 00:29N 46°51' E 031°59'0 0.0
2018-Apr-19 23:59N 46°51' E 031°59'0 0.0
2018-Apr-19 23:29N 46°51' E 031°59'0 0.0
2018-Apr-19 22:59N 46°51' E 031°59'0 0.0
2018-Apr-19 22:29N 46°51' E 031°59'0 0.0
2018-Apr-19 21:59N 46°51' E 031°59'0 0.0
2018-Apr-19 21:29N 46°51' E 031°59'0 0.0
2018-Apr-19 20:53N 46°51' E 031°59'0 0.0
2018-Apr-19 20:29N 46°51' E 031°59'0 0.0
2018-Apr-19 19:59N 46°51' E 031°59'0 0.0
2018-Apr-19 19:26N 46°51' E 031°59'0 0.0
2018-Apr-19 18:59N 46°51' E 031°59'0 0.0
2018-Apr-19 18:29N 46°51' E 031°59'0 0.0
2018-Apr-19 17:59N 46°51' E 031°59'0 0.0
2018-Apr-19 17:29N 46°51' E 031°59'0 0.0
2018-Apr-19 16:59N 46°51' E 031°59'0 0.0
2018-Apr-19 16:29N 46°51' E 031°59'0 0.0
2018-Apr-19 15:59N 46°51' E 031°59'0 0.0
2018-Apr-19 15:29N 46°51' E 031°59'0 0.0
2018-Apr-19 14:59N 46°51' E 031°59'0 0.0
2018-Apr-19 14:29N 46°51' E 031°59'0 0.0
2018-Apr-19 13:59N 46°51' E 031°59'0 0.0
2018-Apr-19 13:29N 46°51' E 031°59'0 0.0
2018-Apr-19 12:59N 46°51' E 031°59'0 0.0
2018-Apr-19 12:29N 46°51' E 031°59'0 0.0
2018-Apr-19 11:59N 46°51' E 031°59'0 0.0
2018-Apr-19 11:29N 46°51' E 031°59'0 0.0
2018-Apr-19 10:59N 46°51' E 031°59'0 0.0
2018-Apr-19 10:29N 46°51' E 031°59'0 0.0
2018-Apr-19 09:59N 46°51' E 031°59'0 0.0
2018-Apr-19 09:29N 46°51' E 031°59'0 0.0
2018-Apr-19 08:59N 46°51' E 031°59'  
Track history (hours):
 
Tides and Currents Weather Stations Pressure Air Temp Water Temp Dewpoint Dewpoint Depression Visibility Wind Speed Wind Dir Waves Ship Positions

Four Aida

Last reported at 2018-Apr-29 08:51 UTC. Time now 2018-May-23 22:13 UTC.
Position N 35°58' W 005°32'.
Warning: this ship's position is 24 days out of date.

Length 180 m; draft 9.9 m.

Type: Cargo ship. MMSI: 248496000.

Date/timePositionNaut miles runAvg speedWind from/ knotsBaromVisibWave heightAir tempDewpointWater temp
2018-Apr-29 08:51N 35°58' W 005°32'3 7.6
2018-Apr-29 08:30N 35°59' W 005°29'3 6.9
2018-Apr-29 08:00N 36°00' W 005°25'3 5.3
2018-Apr-29 07:31N 36°03' W 005°24'2 4.0
2018-Apr-29 07:01N 36°04' W 005°22'2 3.3
2018-Apr-29 06:30N 36°04' W 005°20'3 6.4
2018-Apr-29 06:01N 36°04' W 005°16'5 9.5
2018-Apr-29 05:29N 36°04' W 005°10'21110.4
2018-Apr-28 09:08N 36°31' W 000°50'311.9
2018-Apr-28 08:53N 36°31' W 000°46'43511.9
2018-Apr-26 20:21N 37°39' E 008°12'2712.0
2018-Apr-26 18:05N 37°43' E 008°46'111.6
2018-Apr-26 17:58N 37°43' E 008°48'1311.9
2018-Apr-26 16:53N 37°43' E 009°04'512.1
2018-Apr-26 16:30N 37°42' E 009°10'612.3
2018-Apr-26 16:00N 37°42' E 009°18'612.6
2018-Apr-26 15:30N 37°41' E 009°26'612.3
2018-Apr-26 15:00N 37°41' E 009°33'612.1
2018-Apr-26 14:30N 37°41' E 009°41'611.8
2018-Apr-26 14:00N 37°41' E 009°49'611.7
2018-Apr-26 13:28N 37°40' E 009°57'511.7
2018-Apr-26 13:00N 37°40' E 010°03'611.9
2018-Apr-26 12:30N 37°40' E 010°11'3712.3
2018-Apr-26 09:32N 37°31' E 010°56'812.0
2018-Apr-26 08:52N 37°29' E 011°06'3812.4
2018-Apr-26 05:50N 37°12' E 011°48'512.5
2018-Apr-26 05:27N 37°10' E 011°53'512.3
2018-Apr-26 05:00N 37°07' E 011°59'612.3
2018-Apr-26 04:29N 37°04' E 012°06'612.3
2018-Apr-26 04:01N 37°01' E 012°12'612.3
2018-Apr-26 03:31N 36°59' E 012°19'612.2
2018-Apr-26 03:00N 36°56' E 012°26'612.4
2018-Apr-26 02:30N 36°53' E 012°33'612.6
2018-Apr-26 02:01N 36°51' E 012°40'612.8
2018-Apr-26 01:30N 36°48' E 012°48'612.8
2018-Apr-26 01:00N 36°46' E 012°55'713.0
2018-Apr-26 00:30N 36°43' E 013°03'612.9
2018-Apr-26 00:00N 36°40' E 013°10'612.8
2018-Apr-25 23:30N 36°38' E 013°17'612.5
2018-Apr-25 23:00N 36°36' E 013°25'612.6
2018-Apr-25 22:30N 36°33' E 013°32'612.7
2018-Apr-25 22:00N 36°31' E 013°39'612.7
2018-Apr-25 21:30N 36°28' E 013°46'612.6
2018-Apr-25 21:00N 36°26' E 013°53'612.5
2018-Apr-25 20:30N 36°23' E 014°00'612.5
2018-Apr-25 20:00N 36°20' E 014°07'612.6
2018-Apr-25 19:30N 36°17' E 014°14'612.7
2018-Apr-25 19:00N 36°13' E 014°21'612.7
2018-Apr-25 18:30N 36°10' E 014°27'612.8
2018-Apr-25 18:01N 36°06' E 014°33'612.6
2018-Apr-25 17:31N 36°02' E 014°39'612.5
2018-Apr-25 17:00N 35°56' E 014°42'5 9.1
2018-Apr-25 16:30N 35°52' E 014°45'0 0.6
2018-Apr-25 15:59N 35°52' E 014°45'0 0.2
2018-Apr-25 15:29N 35°52' E 014°45'0 0.1
2018-Apr-25 14:56N 35°52' E 014°45'0 0.0
2018-Apr-25 14:29N 35°52' E 014°45'0 0.0
2018-Apr-25 13:59N 35°52' E 014°45'0 0.0
2018-Apr-25 13:29N 35°52' E 014°45'0 0.0
2018-Apr-25 12:59N 35°52' E 014°45'0 0.0
2018-Apr-25 12:29N 35°52' E 014°45'0 0.1
2018-Apr-25 11:59N 35°52' E 014°45'0 0.0
2018-Apr-25 11:29N 35°52' E 014°45'0 0.0
2018-Apr-25 10:59N 35°52' E 014°45'0 0.0
2018-Apr-25 10:29N 35°52' E 014°45'0 0.0
2018-Apr-25 09:59N 35°52' E 014°45'0 0.0
2018-Apr-25 09:29N 35°52' E 014°45'0 0.0
2018-Apr-25 08:59N 35°52' E 014°45'0 0.0
2018-Apr-25 08:29N 35°52' E 014°45'0 0.1
2018-Apr-25 07:59N 35°52' E 014°45'0 0.0
2018-Apr-25 07:29N 35°52' E 014°45'0 0.0
2018-Apr-25 06:59N 35°52' E 014°45'0 0.0
2018-Apr-25 06:29N 35°52' E 014°45'0 0.0
2018-Apr-25 05:59N 35°52' E 014°45'0 0.0
2018-Apr-25 05:29N 35°52' E 014°45'0 0.5
2018-Apr-25 05:00N 35°52' E 014°45'3 6.3
2018-Apr-25 04:30N 35°52' E 014°49'610.9
2018-Apr-25 04:00N 35°52' E 014°56'611.9
2018-Apr-25 03:30N 35°52' E 015°03'611.9
2018-Apr-25 02:59N 35°52' E 015°11'612.0
2018-Apr-25 02:30N 35°53' E 015°18'611.8
2018-Apr-25 02:00N 35°54' E 015°25'611.6
2018-Apr-25 01:30N 35°54' E 015°32'1411.9
2018-Apr-25 00:19N 35°55' E 015°50'412.0
2018-Apr-24 23:58N 35°55' E 015°55'612.2
2018-Apr-24 23:30N 35°56' E 016°02'612.6
2018-Apr-24 23:00N 35°57' E 016°09'712.5
2018-Apr-24 22:26N 35°57' E 016°18'512.3
2018-Apr-24 22:00N 35°58' E 016°25'34512.1
2018-Apr-23 17:25N 36°36' E 023°31'512.9
2018-Apr-23 17:01N 36°39' E 023°35'612.8
2018-Apr-23 16:30N 36°44' E 023°40'612.7
2018-Apr-23 16:00N 36°49' E 023°45'19612.7
2018-Apr-23 00:36N 39°44' E 025°40'612.8
2018-Apr-23 00:09N 39°48' E 025°44'312.7
2018-Apr-22 23:55N 39°51' E 025°46'613.0
2018-Apr-22 23:29N 39°55' E 025°52'713.3
2018-Apr-22 22:59N 40°00' E 025°57'713.0
2018-Apr-22 22:27N 40°01' E 026°06'  
2018-Apr-20 12:04N 46°15' E 030°54'111.2
2018-Apr-20 12:00N 46°16' E 030°54'611.9
2018-Apr-20 11:29N 46°22' E 030°55'611.5
2018-Apr-20 10:59N 46°27' E 030°55'28 8.9
2018-Apr-20 07:50N 46°35' E 031°34'610.5
2018-Apr-20 07:15N 46°36' E 031°43'310.6
2018-Apr-20 07:00N 46°36' E 031°47'510.5
2018-Apr-20 06:30N 46°38' E 031°54'5 9.8
2018-Apr-20 06:00N 46°43' E 031°56'5 9.5
2018-Apr-20 05:30N 46°47' E 031°53'4 8.9
2018-Apr-20 05:00N 46°51' E 031°57'2 3.1
2018-Apr-20 04:30N 46°51' E 031°59'0 0.1
2018-Apr-20 03:59N 46°51' E 031°59'0 0.0
2018-Apr-20 03:29N 46°51' E 031°59'0 0.0
2018-Apr-20 02:59N 46°51' E 031°59'0 0.0
2018-Apr-20 02:29N 46°51' E 031°59'0 0.0
2018-Apr-20 01:59N 46°51' E 031°59'0 0.0
2018-Apr-20 01:29N 46°51' E 031°59'0 0.0
2018-Apr-20 00:59N 46°51' E 031°59'0 0.0
2018-Apr-20 00:29N 46°51' E 031°59'0 0.0
2018-Apr-19 23:59N 46°51' E 031°59'0 0.0
2018-Apr-19 23:29N 46°51' E 031°59'0 0.0
2018-Apr-19 22:59N 46°51' E 031°59'0 0.0
2018-Apr-19 22:29N 46°51' E 031°59'0 0.0
2018-Apr-19 21:59N 46°51' E 031°59'0 0.0
2018-Apr-19 21:29N 46°51' E 031°59'0 0.0
2018-Apr-19 20:53N 46°51' E 031°59'0 0.0
2018-Apr-19 20:29N 46°51' E 031°59'0 0.0
2018-Apr-19 19:59N 46°51' E 031°59'0 0.0
2018-Apr-19 19:26N 46°51' E 031°59'0 0.0
2018-Apr-19 18:59N 46°51' E 031°59'0 0.0
2018-Apr-19 18:29N 46°51' E 031°59'0 0.0
2018-Apr-19 17:59N 46°51' E 031°59'0 0.0
2018-Apr-19 17:29N 46°51' E 031°59'0 0.0
2018-Apr-19 16:59N 46°51' E 031°59'0 0.0
2018-Apr-19 16:29N 46°51' E 031°59'0 0.0
2018-Apr-19 15:59N 46°51' E 031°59'0 0.0
2018-Apr-19 15:29N 46°51' E 031°59'0 0.0
2018-Apr-19 14:59N 46°51' E 031°59'0 0.0
2018-Apr-19 14:29N 46°51' E 031°59'0 0.0
2018-Apr-19 13:59N 46°51' E 031°59'0 0.0
2018-Apr-19 13:29N 46°51' E 031°59'0 0.0
2018-Apr-19 12:59N 46°51' E 031°59'0 0.0
2018-Apr-19 12:29N 46°51' E 031°59'0 0.0
2018-Apr-19 11:59N 46°51' E 031°59'0 0.0
2018-Apr-19 11:29N 46°51' E 031°59'0 0.0
2018-Apr-19 10:59N 46°51' E 031°59'0 0.0
2018-Apr-19 10:29N 46°51' E 031°59'0 0.0
2018-Apr-19 09:59N 46°51' E 031°59'0 0.0
2018-Apr-19 09:29N 46°51' E 031°59'0 0.0
2018-Apr-19 08:59N 46°51' E 031°59'  

Dump ship's entire track history